Tallinn, Estonia

1:23 AM EEST on September 21, 2014 (GMT +0300)
Ulemiste | Change Station
CLOSE
Current Station
Airport
Location: Tallinn,
Elevation: 131 ft
Nearby Weather Stations

Elev 131 ft 59.41 °N, 24.83 °E | Updated 3 minutes ago

Clear
Clear
50 °F
Feels Like 50 °F
N
6
Wind Variable Wind from SSE

Today
High -- | Low -- °F
--% Chance of Precip.
Yesterday
High -- | Low -- °F
Precip. -- in
7:02 AM 7:24 PM
Waning Crescent, 10% visible
Pressure 29.92 in
Visibility -9999.0 miles
Clouds
Dew Point 45 °F
Humidity 82%
Rainfall 0.00 in
Snow Depth Not available.
UV Not available.
Pollen Not available.
Air Quality Not available.
Flu Activity Not available.
METAR EETN 202220Z 16005KT CAVOK 10/07 Q1013

More Conditions Fewer Conditions

Pressure 29.92 in
Visibility -9999.0 miles
Clouds
Dew Point 45 °F
Humidity 82%
Rainfall 0.00 in
Snow Depth Not available.
UV Not available.
Pollen Not available.
Air Quality Not available.
Flu Activity Not available.
METAR EETN 202220Z 16005KT CAVOK 10/07 Q1013

More Conditions Fewer Conditions

10-Day Weather Forecast

Almanac

Astronomy

Sep. 21, 2014 Rise Set
Actual Time 7:02 AM EEST 7:24 PM EEST
Civil Twilight 6:21 AM EEST 8:04 PM EEST
Nautical Twilight 5:31 AM EEST 8:54 PM EEST
Astronomical Twilight 4:37 AM EEST 9:47 PM EEST
Moon 3:47 AM EEST (9/21) 6:13 PM EEST (9/21)
Length of Visible Light 13h 43m
Length of Day
12h 21m
Tomorrow will be 5m 16s shorter.
Waning Crescent, 10% of the Moon is Illuminated
Sep 20
Waning Crescent
Sep 24
New
Oct 1
First Quarter
Oct 8
Full
Oct 15
Last Quarter

Yesterday's Extremes

Country Highs Country Lows

Community

WunderPhotos

Upload Photos

1,754,967 photos uploaded!

WunderBlogs® & News

Nearby

Snow Depth

Not available.

Earthquake Activity

City Distance Mag. Time & Date
No recent earthquake activity has been reported nearby.
Minimum magnitude displayed is 2.5.

Coastal Water Temperatures

Place Temperature
No Stations Reporting

Nearby Weather Stations